createdAt,value
2023-01-23T00:00:48.100Z,102402.19
2023-01-23T00:03:14.812Z,102398.66
2023-01-23T00:05:41.334Z,102396.97
2023-01-23T00:08:08.029Z,102408.22
2023-01-23T00:10:34.550Z,102401.09
2023-01-23T00:13:01.278Z,102409.66
2023-01-23T00:15:28.074Z,102413.00
2023-01-23T00:17:54.721Z,102396.53
2023-01-23T00:20:21.497Z,102401.00
2023-01-23T00:22:48.317Z,102396.75
2023-01-23T00:25:14.954Z,102394.13
2023-01-23T00:27:41.578Z,102400.78
2023-01-23T00:30:09.057Z,102400.59
2023-01-23T00:32:35.679Z,102403.09
2023-01-23T00:35:02.642Z,102403.00
2023-01-23T00:37:29.692Z,102406.50
2023-01-23T00:39:56.539Z,102409.03
2023-01-23T00:42:23.051Z,102415.09
2023-01-23T00:44:49.666Z,102419.50
2023-01-23T00:47:16.176Z,102412.66
2023-01-23T00:49:42.797Z,102410.25
2023-01-23T00:52:09.967Z,102412.84
2023-01-23T00:54:38.542Z,102415.59
2023-01-23T00:57:05.688Z,102416.72
2023-01-23T00:59:32.393Z,102419.63
2023-01-23T01:01:59.070Z,102425.06
2023-01-23T01:04:25.862Z,102422.56
2023-01-23T01:06:53.424Z,102422.56
2023-01-23T01:09:22.587Z,102413.69
2023-01-23T01:11:49.176Z,102419.94
2023-01-23T01:14:16.255Z,102417.34
2023-01-23T01:16:45.459Z,102419.13
2023-01-23T01:19:17.712Z,102428.91
2023-01-23T01:21:44.207Z,102433.44
2023-01-23T01:24:12.158Z,102426.41
2023-01-23T01:26:40.355Z,102429.81
2023-01-23T01:29:06.969Z,102435.03
2023-01-23T01:31:34.651Z,102439.41
2023-01-23T01:34:02.278Z,102437.56
2023-01-23T01:36:28.722Z,102442.81
2023-01-23T01:38:56.317Z,102454.22
2023-01-23T01:41:24.909Z,102447.94
2023-01-23T01:43:53.346Z,102457.22
2023-01-23T01:46:31.017Z,102454.28
2023-01-23T01:49:30.073Z,102459.31
2023-01-23T01:52:03.319Z,102454.78
2023-01-23T01:54:51.117Z,102460.75
2023-01-23T01:57:35.409Z,102456.91
2023-01-23T02:00:15.846Z,102457.59
2023-01-23T02:03:06.180Z,102460.91
2023-01-23T02:05:38.219Z,102468.56
2023-01-23T02:08:23.259Z,102469.25
2023-01-23T02:10:52.048Z,102469.25
2023-01-23T02:13:26.032Z,102471.66
2023-01-23T02:15:53.143Z,102473.16
2023-01-23T02:18:21.330Z,102466.81
2023-01-23T02:20:50.815Z,102469.25
2023-01-23T02:23:29.482Z,102468.31
2023-01-23T02:26:07.014Z,102473.66
2023-01-23T02:28:40.671Z,102480.94
2023-01-23T02:31:08.851Z,102469.63
2023-01-23T02:33:35.425Z,102477.50
2023-01-23T02:36:05.555Z,102476.47
2023-01-23T02:38:51.301Z,102480.50
2023-01-23T02:41:24.338Z,102483.69
2023-01-23T02:43:52.720Z,102477.47
2023-01-23T02:46:20.706Z,102476.22
2023-01-23T02:48:48.711Z,102484.69
2023-01-23T02:51:17.108Z,102489.69
2023-01-23T02:53:45.235Z,102481.72
2023-01-23T02:56:11.901Z,102488.47
2023-01-23T02:58:56.945Z,102483.13
2023-01-23T03:01:25.783Z,102493.81
2023-01-23T03:03:53.588Z,102494.00
2023-01-23T03:06:21.012Z,102498.66
2023-01-23T03:08:50.219Z,102493.53
2023-01-23T03:11:18.647Z,102495.38
2023-01-23T03:13:48.206Z,102497.97
2023-01-23T03:16:15.496Z,102494.44
2023-01-23T03:18:53.110Z,102500.59
2023-01-23T03:21:21.755Z,102495.16
2023-01-23T03:23:48.360Z,102497.53
2023-01-23T03:26:15.563Z,102492.88
2023-01-23T03:29:01.431Z,102499.75
2023-01-23T03:31:28.105Z,102499.75
2023-01-23T03:33:54.813Z,102501.56
2023-01-23T03:36:22.373Z,102510.22
2023-01-23T03:39:07.700Z,102505.09
2023-01-23T03:41:34.463Z,102502.47
2023-01-23T03:44:04.107Z,102515.56
2023-01-23T03:46:31.197Z,102512.22
2023-01-23T03:48:57.710Z,102519.50
2023-01-23T03:51:24.310Z,102521.53
2023-01-23T03:53:51.303Z,102512.19
2023-01-23T03:56:17.810Z,102520.97
2023-01-23T03:58:44.736Z,102512.97
2023-01-23T04:01:13.764Z,102521.53
2023-01-23T04:03:42.332Z,102523.16
2023-01-23T04:06:08.912Z,102516.09
2023-01-23T04:08:36.091Z,102520.63
2023-01-23T04:11:09.493Z,102522.56
2023-01-23T04:13:36.715Z,102521.75
2023-01-23T04:16:05.001Z,102517.53
2023-01-23T04:18:32.139Z,102525.38
2023-01-23T04:20:59.753Z,102516.50
2023-01-23T04:23:26.840Z,102527.91
2023-01-23T04:25:54.303Z,102528.81
2023-01-23T04:28:22.158Z,102529.13
2023-01-23T04:30:53.494Z,102525.81
2023-01-23T04:33:26.991Z,102531.25
2023-01-23T04:35:58.080Z,102525.13
2023-01-23T04:38:27.012Z,102526.03
2023-01-23T04:40:54.557Z,102525.81
2023-01-23T04:43:21.598Z,102522.19
2023-01-23T04:45:52.538Z,102520.84
2023-01-23T04:48:49.491Z,102519.50
2023-01-23T04:51:17.538Z,102517.47
2023-01-23T04:53:45.274Z,102520.91
2023-01-23T04:56:11.939Z,102533.88
2023-01-23T04:58:38.446Z,102534.66
2023-01-23T05:01:07.681Z,102541.63
2023-01-23T05:03:35.935Z,102533.53
2023-01-23T05:06:02.618Z,102534.34
2023-01-23T05:08:29.329Z,102543.09
2023-01-23T05:11:09.184Z,102533.78
2023-01-23T05:13:36.044Z,102539.22
2023-01-23T05:16:03.116Z,102542.88
2023-01-23T05:18:38.566Z,102547.53
2023-01-23T05:21:06.215Z,102547.72
2023-01-23T05:23:35.479Z,102542.69
2023-01-23T05:26:05.353Z,102549.97
2023-01-23T05:28:32.137Z,102541.28
2023-01-23T05:30:58.696Z,102548.38
2023-01-23T05:33:38.146Z,102547.66
2023-01-23T05:36:05.531Z,102545.84
2023-01-23T05:38:32.692Z,102545.75
2023-01-23T05:41:00.634Z,102543.03
2023-01-23T05:43:45.795Z,102545.66
2023-01-23T05:46:47.811Z,102552.59
2023-01-23T05:49:14.394Z,102563.88
2023-01-23T05:51:41.751Z,102574.13
2023-01-23T05:54:12.331Z,102574.47
2023-01-23T05:56:43.282Z,102578.50
2023-01-23T05:59:28.203Z,102587.03
2023-01-23T06:02:04.229Z,102588.75
2023-01-23T06:04:59.373Z,102601.59
2023-01-23T06:07:38.796Z,102594.00
2023-01-23T06:10:09.935Z,102593.19
2023-01-23T06:12:37.038Z,102600.22
2023-01-23T06:15:04.794Z,102591.47
2023-01-23T06:17:31.527Z,102609.91
2023-01-23T06:19:59.216Z,102601.22
2023-01-23T06:22:26.090Z,102608.31
2023-01-23T06:25:12.581Z,102595.22
2023-01-23T06:27:39.375Z,102597.94
2023-01-23T06:30:09.364Z,102603.28
2023-01-23T06:32:41.246Z,102605.13
2023-01-23T06:35:09.545Z,102615.78
2023-01-23T06:37:39.394Z,102617.50
2023-01-23T06:40:08.807Z,102622.84
2023-01-23T06:42:35.461Z,102616.91
2023-01-23T06:45:02.430Z,102623.19
2023-01-23T06:47:31.186Z,102625.09
2023-01-23T06:50:02.086Z,102623.38
2023-01-23T06:52:33.934Z,102631.34
2023-01-23T06:55:00.595Z,102627.94
2023-01-23T06:57:27.097Z,102635.00
2023-01-23T06:59:53.704Z,102628.97
2023-01-23T07:02:21.077Z,102630.78
2023-01-23T07:04:50.033Z,102624.75
2023-01-23T07:07:17.162Z,102629.19
2023-01-23T07:09:45.721Z,102644.88
2023-01-23T07:12:19.224Z,102649.31
2023-01-23T07:14:46.287Z,102651.94
2023-01-23T07:17:17.009Z,102653.88
2023-01-23T07:19:43.695Z,102655.81
2023-01-23T07:22:13.105Z,102660.25
2023-01-23T07:24:39.970Z,102664.66
2023-01-23T07:27:06.463Z,102664.91
2023-01-23T07:29:32.935Z,102668.53
2023-01-23T07:32:01.129Z,102681.84
2023-01-23T07:34:31.793Z,102679.22
2023-01-23T07:36:58.645Z,102688.13
2023-01-23T07:39:25.300Z,102686.28
2023-01-23T07:41:51.871Z,102696.53
2023-01-23T07:44:21.270Z,102697.94
2023-01-23T07:46:48.960Z,102702.63
2023-01-23T07:49:15.997Z,102694.66
2023-01-23T07:51:42.519Z,102695.47
2023-01-23T07:54:09.370Z,102691.22
2023-01-23T07:56:35.842Z,102686.78
2023-01-23T07:59:02.437Z,102686.78
2023-01-23T08:01:29.046Z,102678.94
2023-01-23T08:03:55.624Z,102681.56
2023-01-23T08:06:22.412Z,102693.84
2023-01-23T08:08:49.652Z,102689.72
2023-01-23T08:11:16.310Z,102705.69
2023-01-23T08:13:43.007Z,102704.19
2023-01-23T08:16:11.453Z,102702.72
2023-01-23T08:18:39.990Z,102701.09
2023-01-23T08:21:06.485Z,102696.75
2023-01-23T08:23:34.439Z,102698.81
2023-01-23T08:26:04.219Z,102691.19
2023-01-23T08:28:31.035Z,102699.25
2023-01-23T08:31:05.427Z,102700.16
2023-01-23T08:33:34.213Z,102688.78
2023-01-23T08:36:00.888Z,102696.06
2023-01-23T08:38:27.757Z,102700.69
2023-01-23T08:40:57.935Z,102699.22
2023-01-23T08:43:24.590Z,102707.19
2023-01-23T08:45:53.865Z,102700.09
2023-01-23T08:48:22.275Z,102703.97
2023-01-23T08:50:49.031Z,102700.56
2023-01-23T08:53:16.065Z,102701.34
2023-01-23T08:55:42.720Z,102710.84
2023-01-23T08:58:13.012Z,102709.19
2023-01-23T09:00:40.258Z,102714.56
2023-01-23T09:03:07.031Z,102717.50
2023-01-23T09:05:33.612Z,102722.94
2023-01-23T09:08:00.067Z,102721.69
2023-01-23T09:10:27.257Z,102729.88
2023-01-23T09:12:54.875Z,102731.69
2023-01-23T09:15:22.480Z,102732.59
2023-01-23T09:17:49.917Z,102732.59
2023-01-23T09:20:17.074Z,102732.09
2023-01-23T09:22:43.682Z,102746.25
2023-01-23T09:25:10.588Z,102744.63
2023-01-23T09:27:37.108Z,102753.53
2023-01-23T09:30:04.393Z,102755.38
2023-01-23T09:32:31.111Z,102769.47
2023-01-23T09:34:57.614Z,102767.88
2023-01-23T09:37:24.148Z,102766.84
2023-01-23T09:39:50.715Z,102760.72
2023-01-23T09:42:20.843Z,102779.06
2023-01-23T09:45:00.832Z,102775.53
2023-01-23T09:47:39.045Z,102774.59
2023-01-23T09:50:11.028Z,102773.72
2023-01-23T09:52:44.659Z,102770.19
2023-01-23T09:55:25.026Z,102768.13
2023-01-23T09:57:55.706Z,102776.81
2023-01-23T10:00:33.329Z,102779.19
2023-01-23T10:03:11.427Z,102777.41
2023-01-23T10:05:57.745Z,102782.84
2023-01-23T10:08:53.760Z,102783.19
2023-01-23T10:11:22.905Z,102784.31
2023-01-23T10:14:05.248Z,102781.22
2023-01-23T10:17:06.068Z,102782.44
2023-01-23T10:20:00.111Z,102794.06
2023-01-23T10:22:47.477Z,102783.75
2023-01-23T10:25:20.446Z,102783.88
2023-01-23T10:27:50.181Z,102789.56
2023-01-23T10:30:28.708Z,102787.03
2023-01-23T10:33:01.703Z,102788.16
2023-01-23T10:35:50.761Z,102786.44
2023-01-23T10:38:39.718Z,102787.13
2023-01-23T10:41:17.486Z,102786.16
2023-01-23T10:43:47.666Z,102785.13
2023-01-23T10:46:26.838Z,102780.66
2023-01-23T10:48:55.027Z,102779.63
2023-01-23T10:51:35.869Z,102780.47
2023-01-23T10:54:11.372Z,102785.81
2023-01-23T10:56:54.128Z,102775.66
2023-01-23T10:59:35.858Z,102779.41
2023-01-23T11:02:02.442Z,102771.63
2023-01-23T11:04:35.026Z,102784.66
2023-01-23T11:07:14.876Z,102774.25
2023-01-23T11:10:00.801Z,102782.81
2023-01-23T11:12:45.994Z,102783.72
2023-01-23T11:15:29.295Z,102779.50
2023-01-23T11:17:57.878Z,102781.31
2023-01-23T11:20:37.875Z,102770.81
2023-01-23T11:23:13.226Z,102771.81
2023-01-23T11:25:54.025Z,102757.19
2023-01-23T11:28:36.673Z,102761.13
2023-01-23T11:31:19.410Z,102767.63
2023-01-23T11:34:14.516Z,102762.69
2023-01-23T11:36:51.992Z,102771.00
2023-01-23T11:39:32.442Z,102763.22
2023-01-23T11:41:59.422Z,102759.75
2023-01-23T11:44:28.230Z,102761.41
2023-01-23T11:47:21.608Z,102754.50
2023-01-23T11:50:11.700Z,102749.28
2023-01-23T11:52:50.914Z,102752.72
2023-01-23T11:55:39.320Z,102753.53
2023-01-23T11:58:23.277Z,102752.72
2023-01-23T12:01:13.272Z,102752.72
2023-01-23T12:03:57.864Z,102746.53
2023-01-23T12:06:30.278Z,102753.53
2023-01-23T12:09:05.370Z,102749.78
2023-01-23T12:12:08.435Z,102747.66
2023-01-23T12:15:16.017Z,102750.44
2023-01-23T12:18:35.301Z,102747.63
2023-01-23T12:21:11.893Z,102746.03
2023-01-23T12:24:03.373Z,102738.16
2023-01-23T12:26:32.497Z,102749.66
2023-01-23T12:29:18.535Z,102739.38
2023-01-23T12:32:01.381Z,102737.53
2023-01-23T12:34:59.201Z,102739.75
2023-01-23T12:37:48.586Z,102737.13
2023-01-23T12:40:28.167Z,102729.94
2023-01-23T12:43:04.520Z,102738.06
2023-01-23T12:45:32.918Z,102732.91
2023-01-23T12:48:02.220Z,102736.53
2023-01-23T12:50:55.794Z,102742.78
2023-01-23T12:53:23.744Z,102735.53
2023-01-23T12:56:07.051Z,102733.59
2023-01-23T12:58:37.637Z,102730.03
2023-01-23T13:01:25.568Z,102737.91
2023-01-23T13:04:10.820Z,102729.16
2023-01-23T13:06:59.381Z,102726.81
2023-01-23T13:09:47.643Z,102735.72
2023-01-23T13:12:22.803Z,102736.53
2023-01-23T13:15:15.485Z,102739.16
2023-01-23T13:17:59.690Z,102740.97
2023-01-23T13:20:56.785Z,102736.31
2023-01-23T13:23:35.424Z,102746.91
2023-01-23T13:26:15.683Z,102743.28
2023-01-23T13:28:50.425Z,102752.63
2023-01-23T13:31:32.970Z,102752.44
2023-01-23T13:34:14.603Z,102752.34
2023-01-23T13:36:50.245Z,102752.44
2023-01-23T13:39:17.095Z,102763.75
2023-01-23T13:41:45.565Z,102774.16
2023-01-23T13:44:41.455Z,102762.94
2023-01-23T14:22:08.015Z,102781.38
2023-01-23T14:24:50.171Z,102782.38
2023-01-23T14:27:34.985Z,102781.47
2023-01-23T14:30:17.731Z,102777.13
2023-01-23T14:32:45.996Z,102783.28
2023-01-23T14:35:40.329Z,102786.81
2023-01-23T14:38:08.198Z,102782.50
2023-01-23T14:40:49.332Z,102782.59
2023-01-23T14:43:28.428Z,102788.63
2023-01-23T14:46:29.513Z,102786.72
2023-01-23T14:48:56.365Z,102786.63
2023-01-23T14:51:26.900Z,102788.44
2023-01-23T14:53:58.860Z,102788.44
2023-01-23T14:56:37.775Z,102791.97
2023-01-23T14:59:07.902Z,102791.97
2023-01-23T15:01:36.052Z,102781.69
2023-01-23T15:04:19.326Z,102786.16
2023-01-23T15:06:52.548Z,102797.75
2023-01-23T15:09:25.411Z,102804.59
2023-01-23T15:11:52.070Z,102807.34
2023-01-23T15:14:30.862Z,102810.63
2023-01-23T15:17:05.143Z,102813.16
2023-01-23T15:19:35.301Z,102807.81
2023-01-23T15:22:20.673Z,102808.50
2023-01-23T15:24:48.471Z,102804.06
2023-01-23T15:27:35.268Z,102798.63
2023-01-23T15:30:35.875Z,102800.91
2023-01-23T15:33:08.261Z,102798.66
2023-01-23T15:35:36.939Z,102804.56
2023-01-23T15:38:06.669Z,102808.22
2023-01-23T15:40:36.875Z,102801.94
2023-01-23T15:43:12.132Z,102807.81
2023-01-23T15:45:38.984Z,102801.41
2023-01-23T15:48:06.314Z,102804.28
2023-01-23T15:50:32.944Z,102796.00
2023-01-23T15:52:59.713Z,102799.31
2023-01-23T15:55:28.294Z,102800.81
2023-01-23T15:57:55.989Z,102796.13
2023-01-23T16:00:25.023Z,102796.72
2023-01-23T16:02:56.841Z,102797.53
2023-01-23T16:05:33.925Z,102793.31
2023-01-23T16:08:02.504Z,102789.88
2023-01-23T16:10:32.852Z,102790.69
2023-01-23T16:12:59.837Z,102783.41
2023-01-23T16:15:32.936Z,102782.38
2023-01-23T16:18:00.808Z,102777.94
2023-01-23T16:20:30.343Z,102796.28
2023-01-23T16:23:14.684Z,102799.00
2023-01-23T16:25:44.861Z,102800.72
2023-01-23T16:28:21.261Z,102801.53
2023-01-23T16:30:49.818Z,102804.94
2023-01-23T16:33:16.540Z,102807.44
2023-01-23T16:35:44.227Z,102803.81
2023-01-23T16:38:29.693Z,102811.56
2023-01-23T16:40:59.944Z,102813.38
2023-01-23T16:43:27.404Z,102814.19
2023-01-23T16:45:56.054Z,102812.38
2023-01-23T16:48:27.653Z,102817.63
2023-01-23T16:51:00.290Z,102819.41
2023-01-23T16:53:31.464Z,102813.59
2023-01-23T16:56:00.457Z,102820.66
2023-01-23T16:58:29.623Z,102813.59
2023-01-23T17:01:03.255Z,102810.88
2023-01-23T17:03:34.332Z,102812.38
2023-01-23T17:06:01.104Z,102803.47
2023-01-23T17:08:27.863Z,102801.66
2023-01-23T17:10:58.560Z,102801.53
2023-01-23T17:13:26.622Z,102805.06
2023-01-23T17:15:55.470Z,102807.91
2023-01-23T17:18:25.909Z,102805.50
2023-01-23T17:20:56.528Z,102808.00
2023-01-23T17:23:25.541Z,102821.47
2023-01-23T17:26:00.482Z,102816.78
2023-01-23T17:28:28.583Z,102822.84
2023-01-23T17:30:56.202Z,102815.88
2023-01-23T17:33:27.198Z,102815.78
2023-01-23T17:35:54.259Z,102825.34
2023-01-23T17:38:25.002Z,102820.91
2023-01-23T17:40:52.261Z,102818.28
2023-01-23T17:43:20.430Z,102826.03
2023-01-23T17:45:50.213Z,102825.94
2023-01-23T17:48:23.090Z,102832.06
2023-01-23T17:50:49.724Z,102839.16
2023-01-23T17:53:17.178Z,102838.00
2023-01-23T17:55:47.910Z,102833.44
2023-01-23T17:58:15.701Z,102828.09
2023-01-23T18:00:43.682Z,102844.47
2023-01-23T18:03:20.715Z,102840.06
2023-01-23T18:08:40.025Z,102845.28
2023-01-23T18:11:12.476Z,102851.00
2023-01-23T18:14:04.698Z,102855.19
2023-01-23T18:16:45.587Z,102841.19
2023-01-23T18:19:16.661Z,102850.78
2023-01-23T18:21:48.566Z,102841.78
2023-01-23T18:24:27.791Z,102848.72
2023-01-23T18:26:59.637Z,102851.22
2023-01-23T18:29:30.917Z,102846.22
2023-01-23T18:32:29.188Z,102851.66
2023-01-23T18:35:21.023Z,102836.88
2023-01-23T18:38:07.357Z,102830.72
2023-01-23T18:40:48.363Z,102839.38
2023-01-23T18:43:23.749Z,102832.28
2023-01-23T18:45:50.588Z,102830.59
2023-01-23T18:48:25.074Z,102828.91
2023-01-23T18:51:09.972Z,102824.69
2023-01-23T18:53:48.424Z,102825.72
2023-01-23T18:56:35.430Z,102825.81
2023-01-23T18:59:22.127Z,102841.75
2023-01-23T19:02:03.710Z,102831.38
2023-01-23T19:04:38.657Z,102831.38
2023-01-23T19:07:15.574Z,102833.22
2023-01-23T19:09:46.347Z,102833.22
2023-01-23T19:12:25.271Z,102833.22
2023-01-23T19:15:29.976Z,102834.81
2023-01-23T19:18:15.022Z,102831.53
2023-01-23T19:20:51.458Z,102834.25
2023-01-23T19:23:28.612Z,102835.84
2023-01-23T19:25:55.291Z,102840.06
2023-01-23T19:28:21.961Z,102846.88
2023-01-23T19:30:48.785Z,102859.88
2023-01-23T19:33:17.567Z,102856.22
2023-01-23T19:35:46.069Z,102855.31
2023-01-23T19:38:15.385Z,102860.44
2023-01-23T19:40:43.545Z,102866.34
2023-01-23T19:43:15.824Z,102874.19
2023-01-23T19:45:43.527Z,102879.44
2023-01-23T19:48:10.451Z,102891.75
2023-01-23T19:50:37.298Z,102886.75
2023-01-23T19:53:04.324Z,102887.66
2023-01-23T19:55:34.112Z,102891.19
2023-01-23T19:58:01.989Z,102885.16
2023-01-23T20:00:31.396Z,102886.75
2023-01-23T20:02:58.303Z,102883.25
2023-01-23T20:05:26.282Z,102878.66
2023-01-23T20:07:54.102Z,102889.03
2023-01-23T20:10:21.706Z,102886.31
2023-01-23T20:12:55.104Z,102875.56
2023-01-23T20:15:24.631Z,102887.91
2023-01-23T20:17:52.916Z,102891.19
2023-01-23T20:20:21.027Z,102888.44
2023-01-23T20:22:47.825Z,102898.00
2023-01-23T20:25:16.315Z,102898.00
2023-01-23T20:27:43.779Z,102887.41
2023-01-23T20:30:17.313Z,102892.66
2023-01-23T20:32:44.008Z,102890.16
2023-01-23T20:35:11.440Z,102891.19
2023-01-23T20:37:37.911Z,102893.81
2023-01-23T20:40:04.946Z,102904.38
2023-01-23T20:42:33.592Z,102893.91
2023-01-23T20:45:00.081Z,102890.50
2023-01-23T20:47:26.545Z,102893.13
2023-01-23T20:49:53.200Z,102892.31
2023-01-23T20:52:38.594Z,102898.47
2023-01-23T20:55:05.434Z,102895.84
2023-01-23T20:57:50.827Z,102894.16
2023-01-23T21:00:17.786Z,102894.28
2023-01-23T21:02:44.315Z,102887.31
2023-01-23T21:05:10.834Z,102893.72
2023-01-23T21:07:37.363Z,102891.19
2023-01-23T21:10:04.462Z,102884.38
2023-01-23T21:12:31.217Z,102888.00
2023-01-23T21:14:57.740Z,102895.06
2023-01-23T21:17:24.439Z,102899.38
2023-01-23T21:19:50.951Z,102902.94
2023-01-23T21:22:17.413Z,102892.44
2023-01-23T21:24:44.164Z,102896.66
2023-01-23T21:27:10.750Z,102894.84
2023-01-23T21:29:37.795Z,102890.59
2023-01-23T21:32:04.599Z,102888.00
2023-01-23T21:34:32.018Z,102887.31
2023-01-23T21:36:58.660Z,102896.22
2023-01-23T21:39:25.343Z,102892.66
2023-01-23T21:41:51.836Z,102893.59
2023-01-23T21:44:18.373Z,102892.78
2023-01-23T21:46:46.980Z,102900.53
2023-01-23T21:49:13.715Z,102899.97
2023-01-23T21:51:40.676Z,102900.78
2023-01-23T21:54:07.372Z,102921.75
2023-01-23T21:56:34.198Z,102910.34
2023-01-23T21:59:01.287Z,102911.25
2023-01-23T22:01:42.512Z,102911.25
2023-01-23T22:04:23.874Z,102908.63
2023-01-23T22:06:54.246Z,102907.72
2023-01-23T22:09:24.631Z,102902.47
2023-01-23T22:11:51.514Z,102914.75
2023-01-23T22:14:19.072Z,102902.47
2023-01-23T22:16:49.823Z,102903.41
2023-01-23T22:19:19.243Z,102902.47
2023-01-23T22:21:46.681Z,102899.75
2023-01-23T22:24:14.161Z,102906.03
2023-01-23T22:26:41.334Z,102902.59
2023-01-23T22:29:08.631Z,102907.81
2023-01-23T22:31:35.588Z,102910.56
2023-01-23T22:34:02.165Z,102898.38
2023-01-23T22:36:28.855Z,102898.38
2023-01-23T22:38:55.478Z,102903.63
2023-01-23T22:41:22.514Z,102904.66
2023-01-23T22:43:56.965Z,102903.84
2023-01-23T22:46:23.934Z,102896.69
2023-01-23T22:48:51.812Z,102902.03
2023-01-23T22:51:24.147Z,102904.53
2023-01-23T22:53:51.823Z,102903.63
2023-01-23T22:56:18.586Z,102905.22
2023-01-23T22:58:49.101Z,102904.19
2023-01-23T23:01:16.503Z,102908.28
2023-01-23T23:03:43.296Z,102908.84
2023-01-23T23:06:12.718Z,102906.81
2023-01-23T23:08:39.760Z,102899.63
2023-01-23T23:11:11.146Z,102906.44
2023-01-23T23:13:39.814Z,102902.13
2023-01-23T23:16:13.899Z,102906.56
2023-01-23T23:18:41.285Z,102908.41
2023-01-23T23:21:11.642Z,102913.50
2023-01-23T23:23:38.685Z,102915.22
2023-01-23T23:26:07.368Z,102892.31
2023-01-23T23:28:34.846Z,102900.19
2023-01-23T23:31:01.470Z,102897.44
2023-01-23T23:33:28.412Z,102888.94
2023-01-23T23:35:54.888Z,102889.69
2023-01-23T23:38:21.785Z,102889.59
2023-01-23T23:41:03.041Z,102885.28
2023-01-23T23:43:29.826Z,102879.22
2023-01-23T23:46:07.783Z,102884.47
2023-01-23T23:48:36.092Z,102883.44
2023-01-23T23:51:06.187Z,102892.22
2023-01-23T23:53:33.037Z,102894.84
2023-01-23T23:55:59.522Z,102896.78
2023-01-23T23:58:26.468Z,102892.53
